• Join FlightAware (Why Join?)
  • Login
  • US Flag 
01:54AM EST


 

Airport Tracker/Info


-or-


 

Live Flight TrackerFlight Track Log ✈ ABX981 ✈ 10-May-2013 ✈ MMGL / GDL - KCVG

Flight Track Log - Related Links

Times and Time Zones

All times are in EDT time to prevent confusion due to time zone crossing. See the ABX981 flight status page for this flight to view local times or setup timezone preferences in your user account.

Time Position Orientation Groundspeed Altitude Reporting Facility
EDT Latitude Longitude Course Direction KTS MPH feet Rate Location/Type
10:23PM 26.6042 -100.1514 40° Northeast 528 608 40,900  Level Houston Center
10:24PM 26.7161 -100.0464 40° Northeast 527 606 41,000  Climbing Houston Center
10:25PM 26.8286 -99.9425 39° Northeast 525 604 40,900  Descending Houston Center
10:26PM 26.9428 -99.8397 39° Northeast 525 604 41,000  Climbing Houston Center
10:27PM 27.0775 -99.7150 39° Northeast 523 602 40,900  Descending Houston Center
10:28PM 27.1900 -99.6081 40° Northeast 528 608 41,000  Climbing Houston Center
10:29PM 27.3050 -99.5025 39° Northeast 532 612 40,900 -60 Descending Houston Center
10:30PM 27.4206 -99.3928 40° Northeast 538 619 40,900  Level Houston Center
10:31PM 27.5369 -99.2822 40° Northeast 541 623 40,900  Level Houston Center
10:32PM 27.6556 -99.1700 40° Northeast 547 629 40,900  Level Houston Center
10:33PM 27.7742 -99.0556 40° Northeast 551 634 40,900  Level Houston Center
10:34PM 27.8914 -98.9436 40° Northeast 547 629 40,900  Level Houston Center
10:35PM 28.0075 -98.8319 40° Northeast 546 628 40,900  Level Houston Center
10:36PM 28.1225 -98.7222 40° Northeast 541 623 41,000  Climbing Houston Center
10:37PM 28.2358 -98.6108 41° Northeast 540 621 41,000  Level Houston Center
10:38PM 28.3508 -98.5022 40° Northeast 537 618 41,000 -60 Level Houston Center
10:39PM 28.4647 -98.3903 41° Northeast 539 620 40,900  Descending Houston Center
10:41PM 28.5806 -98.2842 39° Northeast 538 619 41,000  Climbing Houston Center
10:42PM 28.6953 -98.1744 40° Northeast 538 619 40,900  Descending Houston Center
10:43PM 28.8094 -98.0631 41° Northeast 540 621 41,000  Climbing Houston Center
10:44PM 28.9467 -97.9314 40° Northeast 537 618 40,900  Descending Houston Center
10:45PM 29.0594 -97.8225 40° Northeast 539 620 41,000  Climbing Houston Center
10:46PM 29.1753 -97.7103 40° Northeast 536 617 41,000  Level Houston Center
10:47PM 29.2886 -97.5986 41° Northeast 536 617 41,000 -60 Level Houston Center
10:48PM 29.4031 -97.4856 41° Northeast 540 621 40,900  Descending Houston Center
10:49PM 29.5017 -97.3544 49° Northeast 548 631 41,000  Climbing Houston Center
10:50PM 29.5853 -97.2053 57° Northeast 550 633 41,000  Level Houston Center
10:51PM 29.6639 -97.0519 59° Northeast 552 635 41,000  Level Houston Center
10:52PM 29.7419 -96.8972 60° Northeast 552 635 41,000 -60 Level Houston Center
10:53PM 29.8200 -96.7425 60° Northeast 554 638 40,900 -60 Descending Houston Center
10:54PM 29.9000 -96.5903 59° Northeast 553 636 40,900  Level Houston Center
10:55PM 29.9867 -96.4436 56° Northeast 552 635 40,900  Level Houston Center
10:56PM 30.0822 -96.3064 51° Northeast 549 632 40,900  Level Houston Center
10:57PM 30.1878 -96.1558 51° Northeast 554 638 41,000  Climbing Houston Center
10:58PM 30.2872 -96.0192 50° Northeast 547 629 41,000  Level Houston Center
10:59PM 30.3875 -95.8881 48° Northeast 543 625 41,000  Level Houston Center
11:00PM 30.4864 -95.7486 51° Northeast 555 639 41,000  Level Houston Center
11:01PM 30.5864 -95.6144 49° Northeast 551 634 41,000  Level Houston Center
11:02PM 30.6894 -95.4989 44° Northeast 561 646 41,000  Level Houston Center
11:03PM 30.7986 -95.3767 44° Northeast 546 628 41,000  Level Houston Center
11:04PM 30.9319 -95.2283 44° Northeast 549 632 41,000  Level Houston Center
11:05PM 31.0433 -95.1106 42° Northeast 540 621 41,000  Level Houston Center
11:06PM 31.1544 -94.9914 43° Northeast 540 621 41,000  Level Houston Center
11:07PM 31.2733 -94.8769 39° Northeast 534 615 41,000  Level Houston Center
11:08PM 31.3722 -94.7817 39° Northeast 548 631 41,000  Level Houston Center
11:09PM 31.4897 -94.6675 40° Northeast 542 624 41,000  Level Houston Center
11:10PM 31.6111 -94.5519 39° Northeast 548 631 41,000  Level Fort Worth Center
11:11PM 31.7233 -94.4411 40° Northeast 536 617 41,000  Level Fort Worth Center
11:12PM 31.8375 -94.3322 39° Northeast 536 617 41,000  Level Fort Worth Center
11:13PM 31.9497 -94.2233 39° Northeast 531 611 41,000  Level Fort Worth Center
11:14PM 32.0636 -94.1114 40° Northeast 536 617 41,000  Level Fort Worth Center
11:15PM 32.1775 -94.0017 39° Northeast 536 617 41,000  Level Fort Worth Center
11:16PM 32.2892 -93.8819 42° Northeast 536 617 41,000  Level Fort Worth Center
11:17PM 32.4008 -93.7719 40° Northeast 531 611 41,000  Level Fort Worth Center
11:19PM 32.6219 -93.5533 40° Northeast 526 605 41,000  Level Fort Worth Center
11:20PM 32.7311 -93.4425 40° Northeast 515 593 41,000  Level Fort Worth Center
11:21PM 32.8403 -93.3339 40° Northeast 515 593 41,000  Level Fort Worth Center
11:22PM 32.9514 -93.2222 40° Northeast 515 593 41,000  Level Fort Worth Center
11:23PM 33.0625 -93.1131 39° Northeast 515 593 41,000  Level Fort Worth Center
11:24PM 33.1733 -93.0008 40° Northeast 515 593 41,000  Level Fort Worth Center
11:25PM 33.2964 -92.8756 40° Northeast 515 593 41,000  Level Fort Worth Center
11:27PM 33.5386 -92.6303 40° Northeast 519 597 41,000  Level Memphis Center
11:28PM 33.6489 -92.5181 40° Northeast 519 597 41,000  Level Memphis Center
11:29PM 33.7594 -92.4061 40° Northeast 519 597 41,000  Level Memphis Center
11:30PM 33.8697 -92.2911 41° Northeast 519 597 41,000  Level Memphis Center
11:31PM 33.9778 -92.1808 40° Northeast 514 592 41,000  Level Memphis Center
11:32PM 34.0839 -92.0625 43° Northeast 514 592 41,000  Level Memphis Center
11:33PM 34.1919 -91.9492 41° Northeast 514 592 41,000  Level Memphis Center
11:34PM 34.3039 -91.8331 41° Northeast 519 597 41,000  Level Memphis Center
11:35PM 34.4222 -91.7092 41° Northeast 519 597 41,000  Level Memphis Center
11:36PM 34.5339 -91.5975 39° Northeast 512 589 41,000  Level Memphis Center
11:37PM 34.6392 -91.4831 42° Northeast 512 589 41,000  Level Memphis Center
11:38PM 34.7489 -91.3656 41° Northeast 517 595 41,000  Level Memphis Center
11:39PM 34.8478 -91.2581 42° Northeast 517 595 41,000  Level Memphis Center
11:40PM 34.9444 -91.1247 48° Northeast 511 588 41,000  Level Memphis Center
11:41PM 35.0433 -90.9911 48° Northeast 518 596 41,000  Level Memphis Center
11:42PM 35.1400 -90.8572 49° Northeast 523 602 41,000  Level Memphis Center
11:43PM 35.2364 -90.7231 49° Northeast 523 602 41,000  Level Memphis Center
11:44PM 35.3431 -90.5733 49° Northeast 529 609 41,000  Level Memphis Center
11:45PM 35.4411 -90.4361 49° Northeast 534 615 41,000  Level Memphis Center
11:46PM 35.5414 -90.2933 49° Northeast 534 615 41,000  Level Memphis Center
11:47PM 35.6414 -90.1500 49° Northeast 534 615 41,000  Level Memphis Center
11:48PM 35.7328 -90.0117 51° Northeast 522 601 41,000  Level Memphis Center
11:49PM 35.8303 -89.8731 49° Northeast 522 601 41,000  Level Memphis Center
11:50PM 35.9256 -89.7342 50° Northeast 522 601 41,000  Level Memphis Center
11:51PM 36.0208 -89.5947 50° Northeast 528 608 41,000  Level Memphis Center
11:52PM 36.1178 -89.4550 49° Northeast 528 608 41,000  Level Memphis Center
11:53PM 36.2083 -89.3178 51° Northeast 528 608 41,000  Level Memphis Center
11:54PM 36.3092 -89.1722 49° Northeast 538 619 41,000  Level Memphis Center
11:55PM 36.4078 -89.0317 49° Northeast 538 619 41,000  Level Memphis Center
11:56PM 36.5044 -88.8958 48° Northeast 531 611 41,000  Level Memphis Center
11:57PM 36.5903 -88.7703 50° Northeast 526 605 41,000  Level Memphis Center
11:58PM 36.6864 -88.6286 50° Northeast 531 611 41,000  Level Memphis Center
11:59PM 36.7883 -88.4761 50° Northeast 531 611 41,000  Level Memphis Center
12:00AM 36.8819 -88.3364 50° Northeast 531 611 41,000  Level Memphis Center
12:01AM 36.9756 -88.1964 50° Northeast 531 611 41,000  Level Memphis Center
12:03AM 37.1731 -87.8878 51° Northeast 522 601 41,000  Level Indianapolis Center
12:04AM 37.2669 -87.7439 51° Northeast 524 603 41,000  Level Indianapolis Center
12:05AM 37.3611 -87.5994 51° Northeast 527 606 41,000  Level Indianapolis Center
12:06AM 37.4547 -87.4536 51° Northeast 529 609 41,000  Level Indianapolis Center
12:07AM 37.5483 -87.3081 51° Northeast 529 609 41,000  Level Indianapolis Center
12:08AM 37.6322 -87.1756 51° Northeast 528 608 41,000  Level Indianapolis Center
12:09AM 37.7247 -87.0306 51° Northeast 530 610 41,000 -60 Level Indianapolis Center
12:11AM 37.8161 -86.8850 51° Northeast 531 611 40,900 -1,140 Descending Indianapolis Center
12:12AM 37.9072 -86.7417 51° Northeast 527 606 38,800 -2,460 Descending Indianapolis Center
12:13AM 37.9964 -86.5972 52° Northeast 525 604 35,900 -3,120 Descending Indianapolis Center
12:14AM 38.0878 -86.4511 51° Northeast 530 610 32,500 -3,660 Descending Indianapolis Center
12:15AM 38.1961 -86.2783 51° Northeast 525 604 28,500 -3,360 Descending Indianapolis Center
12:16AM 38.2792 -86.1422 52° Northeast 493 567 25,800 -2,820 Descending Indianapolis Center
12:17AM 38.3600 -86.0111 52° Northeast 474 545 22,900 -2,700 Descending Indianapolis Center
12:18AM 38.4347 -85.8903 52° Northeast 441 507 20,400 -2,820 Descending Indianapolis Center
12:19AM 38.5025 -85.7772 53° Northeast 402 463 17,200 -2,700 Descending Indianapolis Center
12:20AM 38.5694 -85.6681 52° Northeast 390 449 15,000 -2,280 Descending Indianapolis Center
12:21AM 38.6333 -85.5428 57° Northeast 387 445 12,600 -1,980 Descending Indianapolis Center
12:22AM 38.6861 -85.4281 59° Northeast 385 443 11,100 -840 Descending Indianapolis Center
12:23AM 38.7358 -85.3108 61° Northeast 379 436 11,000 -60 Descending Indianapolis Center
12:24AM 38.7875 -85.1983 59° Northeast 371 427 11,000  Level Indianapolis Center
12:25AM 38.8400 -85.0847 59° Northeast 372 428 11,000  Level Indianapolis Center
12:26AM 38.8878 -84.9786 60° Northeast 347 399 11,000 -600 Level Indianapolis Center
12:27AM 38.9000 -84.8667 82° East 298 343 9,900 -1,440 Descending Cincinnati TRACON
12:28AM 38.9000 -84.7667 90° East 292 336 8,400 -1,260 Descending Cincinnati TRACON
12:29AM 38.9000 -84.6667 90° East 289 333 7,400 -720 Descending Cincinnati TRACON
12:30AM 38.9000 -84.5667 90° East 254 292 7,000 -540 Descending Cincinnati TRACON
12:31AM 38.9000 -84.5000 90° East 204 235 6,400 -840 Descending Cincinnati TRACON
12:32AM 38.9000 -84.4167 90° East 212 244 5,400 -660 Descending Cincinnati TRACON
12:33AM 38.9333 -84.3833 38° Northeast 197 227 5,100 -720 Descending Cincinnati TRACON
12:34AM 39.0000 -84.4000 349° North 182 209 3,900 -720 Descending Cincinnati TRACON
12:35AM 39.0333 -84.4333 322° Northwest 180 207 3,600 -300 Descending Cincinnati TRACON
12:36AM 39.0500 -84.5000 288° West 159 183 3,300 -540 Descending Cincinnati TRACON
12:37AM 39.0500 -84.5500 270° West 134 154 2,600 -720 Descending Cincinnati TRACON
12:38AM 39.0500 -84.5833 270° West 121 139 2,000 -660 Descending Cincinnati TRACON
12:39AM 39.0500 -84.6167 270° West 123 142 1,400 -600 Descending Cincinnati TRACON